sensor_id;sensor_type;location;lat;lon;timestamp;pressure;altitude;pressure_sealevel;temperature;humidity
77321;BME280;66382;52.252;8.780;2024-03-29T00:00:39;98499.25;;;8.53;60.53
77321;BME280;66382;52.252;8.780;2024-03-29T00:03:05;98507.69;;;8.50;60.04
77321;BME280;66382;52.252;8.780;2024-03-29T00:05:31;98505.25;;;8.49;60.63
77321;BME280;66382;52.252;8.780;2024-03-29T00:07:57;98511.63;;;8.48;59.86
77321;BME280;66382;52.252;8.780;2024-03-29T00:10:22;98507.34;;;8.47;60.51
77321;BME280;66382;52.252;8.780;2024-03-29T00:12:49;98511.63;;;8.48;60.53
77321;BME280;66382;52.252;8.780;2024-03-29T00:15:15;98507.53;;;8.45;59.92
77321;BME280;66382;52.252;8.780;2024-03-29T00:17:40;98509.19;;;8.46;60.28
77321;BME280;66382;52.252;8.780;2024-03-29T00:20:06;98506.72;;;8.45;59.92
77321;BME280;66382;52.252;8.780;2024-03-29T00:22:32;98506.72;;;8.45;60.12
77321;BME280;66382;52.252;8.780;2024-03-29T00:24:57;98494.84;;;8.40;60.08
77321;BME280;66382;52.252;8.780;2024-03-29T00:27:23;98496.72;;;8.40;60.20
77321;BME280;66382;52.252;8.780;2024-03-29T00:29:50;98496.06;;;8.45;60.04
77321;BME280;66382;52.252;8.780;2024-03-29T00:32:15;98489.91;;;8.44;60.12
77321;BME280;66382;52.252;8.780;2024-03-29T00:34:41;98495.84;;;8.46;59.90
77321;BME280;66382;52.252;8.780;2024-03-29T00:37:06;98495.84;;;8.46;60.64
77321;BME280;66382;52.252;8.780;2024-03-29T00:39:31;98490.94;;;8.43;59.93
77321;BME280;66382;52.252;8.780;2024-03-29T00:41:57;98493.38;;;8.45;60.32
77321;BME280;66382;52.252;8.780;2024-03-29T00:44:22;98496.06;;;8.45;60.18
77321;BME280;66382;52.252;8.780;2024-03-29T00:46:49;98499.78;;;8.44;59.63
77321;BME280;66382;52.252;8.780;2024-03-29T00:49:15;98503.47;;;8.43;59.95
77321;BME280;66382;52.252;8.780;2024-03-29T00:51:40;98492.00;;;8.35;60.17
77321;BME280;66382;52.252;8.780;2024-03-29T00:54:05;98502.06;;;8.40;59.32
77321;BME280;66382;52.252;8.780;2024-03-29T00:56:31;98503.09;;;8.39;60.66
77321;BME280;66382;52.252;8.780;2024-03-29T00:58:56;98501.25;;;8.39;60.25
77321;BME280;66382;52.252;8.780;2024-03-29T01:01:22;98499.59;;;8.38;59.78
77321;BME280;66382;52.252;8.780;2024-03-29T01:03:49;98498.75;;;8.38;60.09
77321;BME280;66382;52.252;8.780;2024-03-29T01:06:14;98501.44;;;8.38;59.97
77321;BME280;66382;52.252;8.780;2024-03-29T01:08:39;98500.63;;;8.37;59.32
77321;BME280;66382;52.252;8.780;2024-03-29T01:11:05;98496.09;;;8.38;60.02
77321;BME280;66382;52.252;8.780;2024-03-29T01:13:30;98500.41;;;8.39;59.63
77321;BME280;66382;52.252;8.780;2024-03-29T01:15:56;98493.66;;;8.36;60.08
77321;BME280;66382;52.252;8.780;2024-03-29T01:18:21;98490.59;;;8.33;60.27
77321;BME280;66382;52.252;8.780;2024-03-29T01:20:48;98494.13;;;8.33;59.60
77321;BME280;66382;52.252;8.780;2024-03-29T01:23:14;98495.13;;;8.32;60.32
77321;BME280;66382;52.252;8.780;2024-03-29T01:25:39;98488.78;;;8.33;59.93
77321;BME280;66382;52.252;8.780;2024-03-29T01:28:05;98489.81;;;8.32;60.30
77321;BME280;66382;52.252;8.780;2024-03-29T01:30:30;98491.88;;;8.30;59.69
77321;BME280;66382;52.252;8.780;2024-03-29T01:32:56;98495.38;;;8.31;60.29
77321;BME280;66382;52.252;8.780;2024-03-29T01:35:21;98493.94;;;8.28;59.41
77321;BME280;66382;52.252;8.780;2024-03-29T01:37:48;98514.50;;;8.28;59.90
77321;BME280;66382;52.252;8.780;2024-03-29T01:40:13;98506.13;;;8.24;60.03
77321;BME280;66382;52.252;8.780;2024-03-29T01:42:39;98516.56;;;8.26;59.45
77321;BME280;66382;52.252;8.780;2024-03-29T01:45:05;98506.13;;;8.24;59.82
77321;BME280;66382;52.252;8.780;2024-03-29T01:47:30;98506.34;;;8.23;59.29
77321;BME280;66382;52.252;8.780;2024-03-29T01:49:56;98513.31;;;8.24;60.09
77321;BME280;66382;52.252;8.780;2024-03-29T01:52:22;98518.66;;;8.24;59.41
77321;BME280;66382;52.252;8.780;2024-03-29T01:54:49;98512.47;;;8.23;59.09
77321;BME280;66382;52.252;8.780;2024-03-29T01:57:16;98511.91;;;8.21;59.52
77321;BME280;66382;52.252;8.780;2024-03-29T01:59:42;98517.25;;;8.21;59.91
77321;BME280;66382;52.252;8.780;2024-03-29T02:02:11;98525.03;;;8.23;59.57
77321;BME280;66382;52.252;8.780;2024-03-29T02:04:36;98514.94;;;8.25;59.97
77321;BME280;66382;52.252;8.780;2024-03-29T02:07:02;98511.22;;;8.26;59.37
77321;BME280;66382;52.252;8.780;2024-03-29T02:09:28;98504.88;;;8.27;59.38
77321;BME280;66382;52.252;8.780;2024-03-29T02:11:55;98500.78;;;8.24;59.31
77321;BME280;66382;52.252;8.780;2024-03-29T02:14:20;98499.75;;;8.25;59.84
77321;BME280;66382;52.252;8.780;2024-03-29T02:16:46;98493.94;;;8.28;59.93
77321;BME280;66382;52.252;8.780;2024-03-29T02:19:11;98494.78;;;8.29;58.97
77321;BME280;66382;52.252;8.780;2024-03-29T02:21:42;98504.41;;;8.30;59.77
77321;BME280;66382;52.252;8.780;2024-03-29T02:24:10;98497.22;;;8.30;60.29
77321;BME280;66382;52.252;8.780;2024-03-29T02:26:37;98493.72;;;8.30;59.06
77321;BME280;66382;52.252;8.780;2024-03-29T02:29:03;98490.41;;;8.34;59.58
77321;BME280;66382;52.252;8.780;2024-03-29T02:31:29;98476.84;;;8.36;59.23
77321;BME280;66382;52.252;8.780;2024-03-29T02:33:54;98480.31;;;8.36;59.28
77321;BME280;66382;52.252;8.780;2024-03-29T02:36:20;98473.13;;;8.37;59.48
77321;BME280;66382;52.252;8.780;2024-03-29T02:38:45;98456.88;;;8.38;59.35
77321;BME280;66382;52.252;8.780;2024-03-29T02:41:12;98452.81;;;8.36;59.01
77321;BME280;66382;52.252;8.780;2024-03-29T02:43:37;98449.69;;;8.39;58.97
77321;BME280;66382;52.252;8.780;2024-03-29T02:46:03;98434.50;;;8.39;58.89
77321;BME280;66382;52.252;8.780;2024-03-29T02:48:29;98425.66;;;8.39;59.30
77321;BME280;66382;52.252;8.780;2024-03-29T02:50:54;98419.88;;;8.42;58.61
77321;BME280;66382;52.252;8.780;2024-03-29T02:53:19;98417.22;;;8.42;58.67
77321;BME280;66382;52.252;8.780;2024-03-29T02:55:45;98423.16;;;8.44;58.92
77321;BME280;66382;52.252;8.780;2024-03-29T02:58:12;98431.50;;;8.48;60.04
77321;BME280;66382;52.252;8.780;2024-03-29T03:00:37;98423.50;;;8.48;59.06
77321;BME280;66382;52.252;8.780;2024-03-29T03:03:03;98421.66;;;8.48;59.32
77321;BME280;66382;52.252;8.780;2024-03-29T03:05:29;98445.69;;;8.48;60.31
77321;BME280;66382;52.252;8.780;2024-03-29T03:07:54;98447.53;;;8.48;59.96
77321;BME280;66382;52.252;8.780;2024-03-29T03:10:20;98447.78;;;8.46;59.36
77321;BME280;66382;52.252;8.780;2024-03-29T03:12:45;98456.22;;;8.43;58.99
77321;BME280;66382;52.252;8.780;2024-03-29T03:15:12;98467.78;;;8.37;59.31
77321;BME280;66382;52.252;8.780;2024-03-29T03:17:38;98458.72;;;8.38;58.82
77321;BME280;66382;52.252;8.780;2024-03-29T03:20:04;98459.56;;;8.38;58.81
77321;BME280;66382;52.252;8.780;2024-03-29T03:22:29;98466.91;;;8.43;59.67
77321;BME280;66382;52.252;8.780;2024-03-29T03:24:55;98462.16;;;8.45;59.57
77321;BME280;66382;52.252;8.780;2024-03-29T03:27:20;98464.38;;;8.48;59.59
77321;BME280;66382;52.252;8.780;2024-03-29T03:29:46;98467.28;;;8.47;59.54
77321;BME280;66382;52.252;8.780;2024-03-29T03:32:12;98475.63;;;8.50;59.34
77321;BME280;66382;52.252;8.780;2024-03-29T03:34:38;98457.31;;;8.54;58.94
77321;BME280;66382;52.252;8.780;2024-03-29T03:37:03;98461.41;;;8.56;59.55
77321;BME280;66382;52.252;8.780;2024-03-29T03:39:29;98466.50;;;8.58;59.42
77321;BME280;66382;52.252;8.780;2024-03-29T03:41:54;98456.19;;;8.61;59.43
77321;BME280;66382;52.252;8.780;2024-03-29T03:44:19;98458.88;;;8.61;59.10
77321;BME280;66382;52.252;8.780;2024-03-29T03:46:45;98466.41;;;8.65;59.07
77321;BME280;66382;52.252;8.780;2024-03-29T03:49:12;98461.88;;;8.65;59.24
77321;BME280;66382;52.252;8.780;2024-03-29T03:54:40;98456.47;;;8.72;59.18
77321;BME280;66382;52.252;8.780;2024-03-29T03:57:05;98456.69;;;8.70;59.02
77321;BME280;66382;52.252;8.780;2024-03-29T03:59:31;98477.84;;;8.72;59.70
77321;BME280;66382;52.252;8.780;2024-03-29T04:01:56;98469.22;;;8.70;59.45
77321;BME280;66382;52.252;8.780;2024-03-29T04:04:23;98477.25;;;8.70;59.57
77321;BME280;66382;52.252;8.780;2024-03-29T04:06:48;98482.59;;;8.70;60.23
77321;BME280;66382;52.252;8.780;2024-03-29T04:09:14;98487.72;;;8.71;59.26
77321;BME280;66382;52.252;8.780;2024-03-29T04:11:39;98479.44;;;8.73;59.66
77321;BME280;66382;52.252;8.780;2024-03-29T04:14:05;98482.50;;;8.76;59.98
77321;BME280;66382;52.252;8.780;2024-03-29T04:16:30;98475.31;;;8.77;59.62
77321;BME280;66382;52.252;8.780;2024-03-29T04:18:55;98474.28;;;8.78;59.45
77321;BME280;66382;52.252;8.780;2024-03-29T04:21:22;98475.09;;;8.78;59.90
77321;BME280;66382;52.252;8.780;2024-03-29T04:23:48;98475.69;;;8.80;59.69
77321;BME280;66382;52.252;8.780;2024-03-29T04:26:13;98475.69;;;8.80;59.78
77321;BME280;66382;52.252;8.780;2024-03-29T04:28:38;98464.28;;;8.85;59.47
77321;BME280;66382;52.252;8.780;2024-03-29T04:31:04;98457.44;;;8.89;59.41
77321;BME280;66382;52.252;8.780;2024-03-29T04:33:29;98465.00;;;8.92;59.63
77321;BME280;66382;52.252;8.780;2024-03-29T04:35:57;98464.56;;;8.95;59.37
77321;BME280;66382;52.252;8.780;2024-03-29T04:38:24;98471.88;;;9.00;59.65
77321;BME280;66382;52.252;8.780;2024-03-29T04:40:51;98473.06;;;9.04;59.30
77321;BME280;66382;52.252;8.780;2024-03-29T04:43:17;98494.81;;;9.08;59.38
77321;BME280;66382;52.252;8.780;2024-03-29T04:45:43;98493.78;;;9.09;59.46
77321;BME280;66382;52.252;8.780;2024-03-29T04:48:08;98498.44;;;9.13;59.28
77321;BME280;66382;52.252;8.780;2024-03-29T04:50:34;98500.88;;;9.15;57.94
77321;BME280;66382;52.252;8.780;2024-03-29T04:52:59;98512.53;;;9.20;59.31
77321;BME280;66382;52.252;8.780;2024-03-29T04:55:26;98522.16;;;9.21;59.45
77321;BME280;66382;52.252;8.780;2024-03-29T04:57:51;98544.16;;;9.23;59.85
77321;BME280;66382;52.252;8.780;2024-03-29T05:00:17;98554.03;;;9.23;59.95
77321;BME280;66382;52.252;8.780;2024-03-29T05:02:43;98547.03;;;9.22;60.10
77321;BME280;66382;52.252;8.780;2024-03-29T05:05:08;98561.25;;;9.22;60.17
77321;BME280;66382;52.252;8.780;2024-03-29T05:07:33;98566.00;;;9.20;60.91
77321;BME280;66382;52.252;8.780;2024-03-29T05:09:59;98570.53;;;9.20;61.02
77321;BME280;66382;52.252;8.780;2024-03-29T05:12:26;98563.53;;;9.19;60.71
77321;BME280;66382;52.252;8.780;2024-03-29T05:14:51;98588.06;;;9.16;61.52
77321;BME280;66382;52.252;8.780;2024-03-29T05:17:16;98586.66;;;9.13;61.36
77321;BME280;66382;52.252;8.780;2024-03-29T05:19:42;98574.56;;;9.11;62.04
77321;BME280;66382;52.252;8.780;2024-03-29T05:22:07;98578.50;;;9.08;61.44
77321;BME280;66382;52.252;8.780;2024-03-29T05:24:33;98587.78;;;9.06;62.02
77321;BME280;66382;52.252;8.780;2024-03-29T05:26:58;98589.25;;;9.01;62.30
77321;BME280;66382;52.252;8.780;2024-03-29T05:29:25;98585.78;;;9.01;62.59
77321;BME280;66382;52.252;8.780;2024-03-29T05:31:50;98586.81;;;9.00;62.12
77321;BME280;66382;52.252;8.780;2024-03-29T05:34:16;98582.72;;;8.97;62.20
77321;BME280;66382;52.252;8.780;2024-03-29T05:36:41;98592.84;;;8.95;63.17
77321;BME280;66382;52.252;8.780;2024-03-29T05:39:07;98599.69;;;8.91;62.82
77321;BME280;66382;52.252;8.780;2024-03-29T05:41:32;98590.25;;;8.89;62.78
77321;BME280;66382;52.252;8.780;2024-03-29T05:43:57;98584.91;;;8.89;62.56
77321;BME280;66382;52.252;8.780;2024-03-29T05:46:24;98588.38;;;8.89;63.20
77321;BME280;66382;52.252;8.780;2024-03-29T05:48:50;98576.50;;;8.85;62.67
77321;BME280;66382;52.252;8.780;2024-03-29T05:51:15;98574.44;;;8.87;62.81
77321;BME280;66382;52.252;8.780;2024-03-29T05:53:40;98567.94;;;8.83;63.70
77321;BME280;66382;52.252;8.780;2024-03-29T05:56:06;98561.59;;;8.77;64.28
77321;BME280;66382;52.252;8.780;2024-03-29T05:58:33;98569.88;;;8.76;63.98
77321;BME280;66382;52.252;8.780;2024-03-29T06:00:58;98571.94;;;8.74;63.48
77321;BME280;66382;52.252;8.780;2024-03-29T06:03:25;98577.28;;;8.74;64.89
77321;BME280;66382;52.252;8.780;2024-03-29T06:05:50;98572.38;;;8.71;64.83
77321;BME280;66382;52.252;8.780;2024-03-29T06:08:16;98562.97;;;8.68;64.55
77321;BME280;66382;52.252;8.780;2024-03-29T06:10:41;98562.28;;;8.73;63.53
77321;BME280;66382;52.252;8.780;2024-03-29T06:13:06;98561.25;;;8.74;63.55
77321;BME280;66382;52.252;8.780;2024-03-29T06:15:32;98554.25;;;8.73;64.48
77321;BME280;66382;52.252;8.780;2024-03-29T06:17:57;98555.53;;;8.70;65.11
77321;BME280;66382;52.252;8.780;2024-03-29T06:20:24;98548.78;;;8.68;64.41
77321;BME280;66382;52.252;8.780;2024-03-29T06:22:50;98541.81;;;8.67;65.02
77321;BME280;66382;52.252;8.780;2024-03-29T06:25:15;98545.53;;;8.66;65.21
77321;BME280;66382;52.252;8.780;2024-03-29T06:27:41;98552.50;;;8.67;64.98
77321;BME280;66382;52.252;8.780;2024-03-29T06:30:07;98557.63;;;8.68;65.06
77321;BME280;66382;52.252;8.780;2024-03-29T06:32:32;98553.97;;;8.63;65.39
77321;BME280;66382;52.252;8.780;2024-03-29T06:34:58;98542.72;;;8.60;65.03
77321;BME280;66382;52.252;8.780;2024-03-29T06:37:25;98530.97;;;8.61;65.31
77321;BME280;66382;52.252;8.780;2024-03-29T06:39:50;98521.34;;;8.60;66.97
77321;BME280;66382;52.252;8.780;2024-03-29T06:42:16;98512.59;;;8.53;65.31
77321;BME280;66382;52.252;8.780;2024-03-29T06:44:41;98512.47;;;8.48;66.08
77321;BME280;66382;52.252;8.780;2024-03-29T06:47:07;98509.63;;;8.43;65.04
77321;BME280;66382;52.252;8.780;2024-03-29T06:49:33;98502.44;;;8.44;65.54
77321;BME280;66382;52.252;8.780;2024-03-29T06:51:58;98503.91;;;8.39;65.53
77321;BME280;66382;52.252;8.780;2024-03-29T06:54:25;98508.03;;;8.35;66.36
77321;BME280;66382;52.252;8.780;2024-03-29T06:56:51;98492.84;;;8.36;65.55
77321;BME280;66382;52.252;8.780;2024-03-29T06:59:18;98492.00;;;8.35;66.33
77321;BME280;66382;52.252;8.780;2024-03-29T07:01:43;98482.19;;;8.36;65.45
77321;BME280;66382;52.252;8.780;2024-03-29T07:04:08;98489.59;;;8.34;67.68
77321;BME280;66382;52.252;8.780;2024-03-29T07:06:34;98484.00;;;8.35;65.77
77321;BME280;66382;52.252;8.780;2024-03-29T07:08:59;98482.59;;;8.33;66.53
77321;BME280;66382;52.252;8.780;2024-03-29T07:11:26;98487.38;;;8.31;66.75
77321;BME280;66382;52.252;8.780;2024-03-29T07:13:51;98483.25;;;8.28;66.03
77321;BME280;66382;52.252;8.780;2024-03-29T07:16:17;98489.88;;;8.26;67.79
77321;BME280;66382;52.252;8.780;2024-03-29T07:18:42;98493.22;;;8.21;68.17
77321;BME280;66382;52.252;8.780;2024-03-29T07:21:07;98495.31;;;8.19;66.10
77321;BME280;66382;52.252;8.780;2024-03-29T07:23:33;98488.75;;;8.15;66.62
77321;BME280;66382;52.252;8.780;2024-03-29T07:25:59;98488.75;;;8.15;67.33
77321;BME280;66382;52.252;8.780;2024-03-29T07:28:26;98478.47;;;8.18;67.23
77321;BME280;66382;52.252;8.780;2024-03-29T07:30:52;98468.97;;;8.23;67.95
77321;BME280;66382;52.252;8.780;2024-03-29T07:33:18;98460.75;;;8.24;66.02
77321;BME280;66382;52.252;8.780;2024-03-29T07:35:43;98456.34;;;8.30;66.11
77321;BME280;66382;52.252;8.780;2024-03-29T07:38:09;98463.09;;;8.32;67.20
77321;BME280;66382;52.252;8.780;2024-03-29T07:40:34;98462.88;;;8.34;66.71
77321;BME280;66382;52.252;8.780;2024-03-29T07:43:00;98464.88;;;8.38;66.96
77321;BME280;66382;52.252;8.780;2024-03-29T07:45:26;98458.72;;;8.38;66.17
77321;BME280;66382;52.252;8.780;2024-03-29T07:47:52;98443.75;;;8.37;66.45
77321;BME280;66382;52.252;8.780;2024-03-29T07:50:17;98451.53;;;8.38;66.96
77321;BME280;66382;52.252;8.780;2024-03-29T07:52:44;98458.31;;;8.41;65.59
77321;BME280;66382;52.252;8.780;2024-03-29T07:55:09;98445.31;;;8.45;66.30
77321;BME280;66382;52.252;8.780;2024-03-29T07:57:35;98454.38;;;8.44;67.11
77321;BME280;66382;52.252;8.780;2024-03-29T08:00:00;98448.94;;;8.50;66.10
77321;BME280;66382;52.252;8.780;2024-03-29T08:02:27;98452.59;;;8.56;66.54
77321;BME280;66382;52.252;8.780;2024-03-29T08:04:52;98457.81;;;8.63;67.15
77321;BME280;66382;52.252;8.780;2024-03-29T08:07:18;98462.72;;;8.66;66.19
77321;BME280;66382;52.252;8.780;2024-03-29T08:09:43;98450.31;;;8.71;67.00
77321;BME280;66382;52.252;8.780;2024-03-29T08:12:09;98451.03;;;8.78;66.28
77321;BME280;66382;52.252;8.780;2024-03-29T08:14:34;98446.84;;;8.82;66.95
77321;BME280;66382;52.252;8.780;2024-03-29T08:16:59;98455.00;;;8.88;66.53
77321;BME280;66382;52.252;8.780;2024-03-29T08:19:26;98446.53;;;8.91;66.75
77321;BME280;66382;52.252;8.780;2024-03-29T08:21:51;98440.97;;;8.92;65.73
77321;BME280;66382;52.252;8.780;2024-03-29T08:24:17;98445.41;;;8.98;66.14
77321;BME280;66382;52.252;8.780;2024-03-29T08:26:42;98456.56;;;9.07;65.93
77321;BME280;66382;52.252;8.780;2024-03-29T08:29:08;98473.09;;;9.16;66.26
77321;BME280;66382;52.252;8.780;2024-03-29T08:31:33;98476.50;;;9.23;66.64
77321;BME280;66382;52.252;8.780;2024-03-29T08:33:58;98484.38;;;9.30;66.11
77321;BME280;66382;52.252;8.780;2024-03-29T08:36:25;98483.47;;;9.36;66.77
77321;BME280;66382;52.252;8.780;2024-03-29T08:38:50;98484.66;;;9.40;66.01
77321;BME280;66382;52.252;8.780;2024-03-29T08:41:16;98474.31;;;9.43;66.23
77321;BME280;66382;52.252;8.780;2024-03-29T08:43:41;98480.03;;;9.47;66.16
77321;BME280;66382;52.252;8.780;2024-03-29T08:46:07;98478.75;;;9.50;66.15
77321;BME280;66382;52.252;8.780;2024-03-29T08:48:32;98478.50;;;9.51;66.11
77321;BME280;66382;52.252;8.780;2024-03-29T08:50:57;98483.97;;;9.56;65.84
77321;BME280;66382;52.252;8.780;2024-03-29T08:53:24;98475.72;;;9.58;66.02
77321;BME280;66382;52.252;8.780;2024-03-29T08:55:50;98473.84;;;9.58;65.71
77321;BME280;66382;52.252;8.780;2024-03-29T08:58:15;98473.63;;;9.60;66.12
77321;BME280;66382;52.252;8.780;2024-03-29T09:00:40;98482.59;;;9.65;65.92
77321;BME280;66382;52.252;8.780;2024-03-29T09:03:06;98482.38;;;9.67;66.23
77321;BME280;66382;52.252;8.780;2024-03-29T09:05:31;98476.75;;;9.68;66.06
77321;BME280;66382;52.252;8.780;2024-03-29T09:07:57;98474.34;;;9.67;65.97
77321;BME280;66382;52.252;8.780;2024-03-29T09:10:24;98463.16;;;9.70;65.86
77321;BME280;66382;52.252;8.780;2024-03-29T09:12:50;98465.59;;;9.72;66.29
77321;BME280;66382;52.252;8.780;2024-03-29T09:15:16;98462.69;;;9.73;65.88
77321;BME280;66382;52.252;8.780;2024-03-29T09:17:41;98448.72;;;9.71;66.42
77321;BME280;66382;52.252;8.780;2024-03-29T09:20:07;98453.84;;;9.73;65.86
77321;BME280;66382;52.252;8.780;2024-03-29T09:22:33;98466.28;;;9.79;66.10
77321;BME280;66382;52.252;8.780;2024-03-29T09:24:59;98472.59;;;9.84;66.50
77321;BME280;66382;52.252;8.780;2024-03-29T09:27:26;98471.16;;;9.94;66.08
77321;BME280;66382;52.252;8.780;2024-03-29T09:29:52;98464.09;;;9.99;66.48
77321;BME280;66382;52.252;8.780;2024-03-29T09:32:18;98465.81;;;10.05;66.36
77321;BME280;66382;52.252;8.780;2024-03-29T09:34:44;98468.94;;;10.14;66.83
77321;BME280;66382;52.252;8.780;2024-03-29T09:37:09;98479.78;;;10.19;66.36
77321;BME280;66382;52.252;8.780;2024-03-29T09:39:35;98470.19;;;10.23;65.85
77321;BME280;66382;52.252;8.780;2024-03-29T09:42:02;98466.22;;;10.26;66.17
77321;BME280;66382;52.252;8.780;2024-03-29T09:44:32;98463.56;;;10.26;65.99
77321;BME280;66382;52.252;8.780;2024-03-29T09:46:58;98478.47;;;10.33;65.77
77321;BME280;66382;52.252;8.780;2024-03-29T09:49:27;98471.13;;;10.41;66.17
77321;BME280;66382;52.252;8.780;2024-03-29T09:51:53;98480.41;;;10.50;65.75
77321;BME280;66382;52.252;8.780;2024-03-29T09:54:19;98495.16;;;10.64;65.67
77321;BME280;66382;52.252;8.780;2024-03-29T09:56:45;98497.91;;;10.81;66.29
77321;BME280;66382;52.252;8.780;2024-03-29T09:59:10;98492.97;;;10.90;65.64
77321;BME280;66382;52.252;8.780;2024-03-29T10:01:37;98481.28;;;10.96;65.76
77321;BME280;66382;52.252;8.780;2024-03-29T10:04:03;98484.66;;;11.03;65.95
77321;BME280;66382;52.252;8.780;2024-03-29T10:06:34;98476.59;;;11.03;65.66
77321;BME280;66382;52.252;8.780;2024-03-29T10:09:00;98482.72;;;11.15;65.96
77321;BME280;66382;52.252;8.780;2024-03-29T10:11:25;98481.81;;;11.27;65.81
77321;BME280;66382;52.252;8.780;2024-03-29T10:13:51;98481.19;;;11.36;66.19
77321;BME280;66382;52.252;8.780;2024-03-29T10:16:18;98480.44;;;11.41;65.25
77321;BME280;66382;52.252;8.780;2024-03-29T10:18:47;98474.94;;;11.48;65.77
77321;BME280;66382;52.252;8.780;2024-03-29T10:21:12;98479.88;;;11.56;66.40
77321;BME280;66382;52.252;8.780;2024-03-29T10:23:38;98483.78;;;11.65;65.14
77321;BME280;66382;52.252;8.780;2024-03-29T10:26:04;98462.13;;;11.72;65.54
77321;BME280;66382;52.252;8.780;2024-03-29T10:28:31;98474.00;;;11.76;65.42
77321;BME280;66382;52.252;8.780;2024-03-29T10:30:56;98477.50;;;11.76;65.24
77321;BME280;66382;52.252;8.780;2024-03-29T10:33:22;98494.41;;;11.77;64.79
77321;BME280;66382;52.252;8.780;2024-03-29T10:35:48;98487.44;;;11.76;64.86
77321;BME280;66382;52.252;8.780;2024-03-29T10:38:14;98490.91;;;11.76;64.70
77321;BME280;66382;52.252;8.780;2024-03-29T10:40:40;98482.63;;;11.78;64.95
77321;BME280;66382;52.252;8.780;2024-03-29T10:43:06;98490.69;;;11.78;64.39
77321;BME280;66382;52.252;8.780;2024-03-29T10:45:32;98493.38;;;11.78;64.93
77321;BME280;66382;52.252;8.780;2024-03-29T10:47:58;98501.75;;;11.81;64.67
77321;BME280;66382;52.252;8.780;2024-03-29T10:50:25;98491.44;;;11.90;64.73
77321;BME280;66382;52.252;8.780;2024-03-29T10:52:53;98490.78;;;12.00;65.18
77321;BME280;66382;52.252;8.780;2024-03-29T10:55:20;98486.22;;;12.00;65.04
77321;BME280;66382;52.252;8.780;2024-03-29T10:57:46;98495.13;;;12.06;64.88
77321;BME280;66382;52.252;8.780;2024-03-29T11:00:15;98501.31;;;12.07;64.22
77321;BME280;66382;52.252;8.780;2024-03-29T11:02:48;98498.09;;;12.04;64.08
77321;BME280;66382;52.252;8.780;2024-03-29T11:05:16;98492.72;;;12.04;65.11
77321;BME280;66382;52.252;8.780;2024-03-29T11:07:43;98501.31;;;12.07;65.03
77321;BME280;66382;52.252;8.780;2024-03-29T11:10:14;98502.78;;;12.14;64.71
77321;BME280;66382;52.252;8.780;2024-03-29T11:12:47;98508.72;;;12.16;65.06
77321;BME280;66382;52.252;8.780;2024-03-29T11:15:27;98517.91;;;12.20;64.83
77321;BME280;66382;52.252;8.780;2024-03-29T11:17:54;98516.84;;;12.21;64.72
77321;BME280;66382;52.252;8.780;2024-03-29T11:20:19;98516.59;;;12.23;64.58
77321;BME280;66382;52.252;8.780;2024-03-29T11:22:45;98517.41;;;12.23;64.60
77321;BME280;66382;52.252;8.780;2024-03-29T11:25:12;98525.22;;;12.25;64.79
77321;BME280;66382;52.252;8.780;2024-03-29T11:27:37;98521.47;;;12.26;64.75
77321;BME280;66382;52.252;8.780;2024-03-29T11:30:04;98523.91;;;12.27;64.22
77321;BME280;66382;52.252;8.780;2024-03-29T11:32:34;98527.19;;;12.30;64.65
77321;BME280;66382;52.252;8.780;2024-03-29T11:34:59;98515.63;;;12.29;64.44
77321;BME280;66382;52.252;8.780;2024-03-29T11:37:29;98513.97;;;12.28;64.17
77321;BME280;66382;52.252;8.780;2024-03-29T11:39:55;98503.22;;;12.28;64.62
77321;BME280;66382;52.252;8.780;2024-03-29T11:42:37;98499.69;;;12.22;64.73
77321;BME280;66382;52.252;8.780;2024-03-29T11:45:04;98502.72;;;12.31;64.98
77321;BME280;66382;52.252;8.780;2024-03-29T11:47:30;98503.69;;;12.42;64.60
77321;BME280;66382;52.252;8.780;2024-03-29T11:49:56;98494.38;;;12.50;64.89
77321;BME280;66382;52.252;8.780;2024-03-29T11:52:22;98492.38;;;12.62;64.25
77321;BME280;66382;52.252;8.780;2024-03-29T11:54:47;98496.78;;;12.73;64.92
77321;BME280;66382;52.252;8.780;2024-03-29T11:57:13;98497.69;;;12.79;64.09
77321;BME280;66382;52.252;8.780;2024-03-29T11:59:39;98501.41;;;12.78;64.03
77321;BME280;66382;52.252;8.780;2024-03-29T12:02:09;98496.31;;;12.76;63.80
77321;BME280;66382;52.252;8.780;2024-03-29T12:04:39;98499.81;;;12.77;64.08
77321;BME280;66382;52.252;8.780;2024-03-29T12:07:05;98489.63;;;12.79;64.41
77321;BME280;66382;52.252;8.780;2024-03-29T12:09:30;98503.06;;;12.79;64.28
77321;BME280;66382;52.252;8.780;2024-03-29T12:11:56;98519.72;;;12.81;64.20
77321;BME280;66382;52.252;8.780;2024-03-29T12:14:22;98542.38;;;12.85;64.23
77321;BME280;66382;52.252;8.780;2024-03-29T12:16:49;98548.06;;;12.88;64.32
77321;BME280;66382;52.252;8.780;2024-03-29T12:19:23;98539.75;;;12.90;64.08
77321;BME280;66382;52.252;8.780;2024-03-29T12:21:50;98541.38;;;12.91;63.96
77321;BME280;66382;52.252;8.780;2024-03-29T12:24:16;98537.09;;;12.95;64.21
77321;BME280;66382;52.252;8.780;2024-03-29T12:26:41;98532.28;;;12.97;64.20
77321;BME280;66382;52.252;8.780;2024-03-29T12:29:07;98522.66;;;13.01;64.16
77321;BME280;66382;52.252;8.780;2024-03-29T12:31:33;98518.38;;;13.05;64.19
77321;BME280;66382;52.252;8.780;2024-03-29T12:34:00;98523.06;;;13.15;64.23
77321;BME280;66382;52.252;8.780;2024-03-29T12:36:25;98530.69;;;13.23;64.08
77321;BME280;66382;52.252;8.780;2024-03-29T12:38:51;98530.81;;;13.33;64.29
77321;BME280;66382;52.252;8.780;2024-03-29T12:41:16;98536.81;;;13.41;64.09
77321;BME280;66382;52.252;8.780;2024-03-29T12:43:42;98542.47;;;13.44;63.73
77321;BME280;66382;52.252;8.780;2024-03-29T12:46:07;98550.31;;;13.46;63.48
77321;BME280;66382;52.252;8.780;2024-03-29T12:48:35;98562.16;;;13.50;63.90
77321;BME280;66382;52.252;8.780;2024-03-29T12:51:02;98559.59;;;13.60;63.72
77321;BME280;66382;52.252;8.780;2024-03-29T12:53:28;98574.47;;;13.68;63.78
77321;BME280;66382;52.252;8.780;2024-03-29T12:55:53;98594.47;;;13.77;63.01
77321;BME280;66382;52.252;8.780;2024-03-29T12:58:19;98576.13;;;13.74;62.54
77321;BME280;66382;52.252;8.780;2024-03-29T13:00:45;98585.84;;;13.75;63.42
77321;BME280;66382;52.252;8.780;2024-03-29T13:03:10;98564.59;;;13.79;63.06